CSUN New Campus Station -PST Time - Most Recent Data on bottom of page




           Date/Time      Avg      Avg      Max     Wind      Avg      Max      Min      Avg      Avg    Total      Avg     Batt
                         Wind     Wind     Wind      Dir     Temp     Temp     Temp       RH      Bar     Rain    Solar     Volt
                      Spd MPH      Dir  Spd MPH   at Max    Deg_F    Deg_F    Deg_F        % Press_mb   Inches     W/m2      Min
--------------------------------------------------------------------------------------------------------------------------------
    01/27/2015 00:00      0.4      146      1.8      141     53.9     54.1     53.8       87     1018     0.00        0     13.5
    01/27/2015 00:15      0.3      170      1.3      179     53.9     54.1     53.6       88     1018     0.00        0     13.5
    01/27/2015 00:30      0.4      153      2.0      153     53.8     54.0     53.6       88     1019     0.00        0     13.5
    01/27/2015 00:45      0.4      125      1.6       90     53.9     54.3     53.6       89     1018     0.00        0     13.5
    01/27/2015 01:00      0.4      308      1.7      278     54.1     54.3     53.9       88     1018     0.00        0     13.5
    01/27/2015 01:15      0.5      233      2.4      239     53.9     54.3     53.6       88     1018     0.00        0     13.5
    01/27/2015 01:30      0.0       63      0.9      333     53.8     54.0     53.6       89     1019     0.00        0     13.5
    01/27/2015 01:45      0.7      279      2.1      257     53.5     53.9     53.3       89     1018     0.00        0     13.5
    01/27/2015 02:00      0.7      268      1.9      260     53.5     53.7     53.3       89     1019     0.00        0     13.5
    01/27/2015 02:15      0.5      284      1.9      291     53.5     53.8     53.3       89     1018     0.00        0     13.5
    01/27/2015 02:30      0.6      217      2.7      254     53.4     53.7     53.2       90     1019     0.00        0     13.5
    01/27/2015 02:45      0.6      219      2.3      203     53.7     54.0     53.3       90     1019     0.00        0     13.5
    01/27/2015 03:00      1.0      282      2.2      249     53.9     54.2     53.6       90     1019     0.00        0     13.5
    01/27/2015 03:15      0.5      251      2.2      256     53.8     54.1     53.6       90     1019     0.00        0     13.5
    01/27/2015 03:30      0.0        0      0.0      254     53.8     54.0     53.6       90     1019     0.00        0     13.5
    01/27/2015 03:45      0.1      303      1.0      303     54.0     54.2     53.8       90     1019     0.00        0     13.5
    01/27/2015 04:00      0.1       40      1.4       58     54.1     54.4     53.9       90     1019     0.00        0     13.5
    01/27/2015 04:15      0.5       43      3.3       53     54.4     54.6     54.1       90     1019     0.00        0     13.5
    01/27/2015 04:30      0.3      328      1.7       12     54.3     54.5     54.1       90     1019     0.01        0     13.5
    01/27/2015 04:45      0.1       51      1.7       12     54.3     54.5     54.1       90     1019     0.00        0     13.5
    01/27/2015 05:00      0.1      170      0.7      180     54.1     54.3     53.7       90     1019     0.00        0     13.5
    01/27/2015 05:15      0.1      168      1.2      162     53.9     54.1     53.7       90     1019     0.00        0     13.5
    01/27/2015 05:30      0.2      194      1.2      157     53.9     54.1     53.6       91     1019     0.00        0     13.5
    01/27/2015 05:45      0.8      193      2.7      204     53.5     53.8     53.1       91     1019     0.00        0     13.5
    01/27/2015 06:00      0.7      220      2.2      195     53.3     53.5     53.0       91     1020     0.00        0     13.5
    01/27/2015 06:15      0.6      220      2.6      192     53.3     53.5     53.2       91     1020     0.00        0     13.5
    01/27/2015 06:30      0.4      292      1.6      298     53.6     53.9     53.3       91     1020     0.00        0     13.5
    01/27/2015 06:45      0.6      297      2.0      284     53.7     53.9     53.5       91     1020     0.00        0     13.5
    01/27/2015 07:00      0.1      315      1.3        0     53.8     54.0     53.6       91     1021     0.00        2     13.5
    01/27/2015 07:15      0.0        0      0.0      265     53.9     54.1     53.6       91     1021     0.00        7     13.5
    01/27/2015 07:30      0.0        0      0.0      301     54.2     54.5     53.8       91     1021     0.00       19     13.5
    01/27/2015 07:45      0.0       51      0.6       47     54.6     54.9     54.3       91     1021     0.00       36     13.5
    01/27/2015 08:00      0.3        7      1.9        3     55.3     55.8     54.7       91     1021     0.00       44     13.5
    01/27/2015 08:15      0.4      196      1.6      199     55.7     56.2     55.3       91     1021     0.00       68     13.4
    01/27/2015 08:30      1.2      158      2.5      152     56.4     56.8     56.0       90     1021     0.00      104     13.4
    01/27/2015 08:45      0.7      157      2.1      162     57.1     57.7     56.6       89     1021     0.00      144     13.4
    01/27/2015 09:00      0.5      195      1.9      170     58.2     59.1     57.4       86     1021     0.00      143     13.4
    01/27/2015 09:15      0.9        3      4.8        1     59.9     60.8     59.0       73     1021     0.00      272     13.4
    01/27/2015 09:30      1.0       12      6.8        3     62.1     63.1     60.6       63     1022     0.00      383     13.3
    01/27/2015 09:45      1.5       15      5.4       52     63.3     64.2     62.5       60     1021     0.00      235     13.3
    01/27/2015 10:00      1.4       11      5.1       12     63.6     64.1     63.3       60     1021     0.00      450     13.3
    01/27/2015 10:15      2.1       38      7.5       46     64.0     64.5     63.7       57     1021     0.00      469     13.3
    01/27/2015 10:30      1.3       18      5.8      340     64.5     65.0     64.0       57     1021     0.00      482     13.2
    01/27/2015 10:45      0.9       77      4.6       14     65.7     66.5     64.8       51     1021     0.00      508     13.2
    01/27/2015 11:00      1.5       45      5.3       27     65.7     66.5     64.9       47     1021     0.00      555     13.2
    01/27/2015 11:15      1.4      118      4.0      160     66.6     67.8     65.4       52     1021     0.00      307     13.2
    01/27/2015 11:30      0.9      256      3.4      202     65.8     66.7     65.2       46     1021     0.00      533     13.2
    01/27/2015 11:45      1.0       73      4.3       73     66.8     67.8     66.2       44     1021     0.00      582     13.2
    01/27/2015 12:00      2.6       82      5.9       23     67.1     67.7     66.8       46     1021     0.00      594     13.2
    01/27/2015 12:15      2.7      185      6.8      194     67.9     68.5     67.4       44     1020     0.00      556     13.2
    01/27/2015 12:30      5.6      183      9.0      199     67.7     68.5     66.9       45     1020     0.00      586     13.2
    01/27/2015 12:45      2.4      180      7.0      177     67.9     68.4     67.3       41     1020     0.00      551     13.2
    01/27/2015 13:00      1.8       87      4.4       83     68.5     69.2     67.9       45     1020     0.00      565     13.2
    01/27/2015 13:15      2.3      150      6.7      175     69.8     70.9     68.8       41     1020     0.00      542     13.2
    01/27/2015 13:30      3.4      163      9.5      155     69.0     70.2     67.9       39     1020     0.00      451     13.1
    01/27/2015 13:45      3.8      167      7.6      172     69.1     69.6     68.8       41     1020     0.00      552     13.1
    01/27/2015 14:00      5.1      187     10.5      182     69.3     70.0     68.9       42     1020     0.00      534     13.1
    01/27/2015 14:15      3.4      188      8.6      186     69.5     70.1     68.9       40     1020     0.00      518     13.1
    01/27/2015 14:30      5.2      173     12.8      149     69.2     70.2     68.5       41     1020     0.00      426     13.1
    01/27/2015 14:45      5.1      184      8.9      185     68.5     69.9     67.4       40     1020     0.00      237     13.1
    01/27/2015 15:00      2.0      175      6.1      157     69.3     70.6     67.8       35     1020     0.00      404     13.2
    01/27/2015 15:15      2.6      221      9.0      177     70.1     70.6     69.6       35     1020     0.00      415     13.1
    01/27/2015 15:30      6.1      181     11.1      194     69.1     69.8     68.4       37     1020     0.00      325     13.1
    01/27/2015 15:45      5.9      195     10.0      185     68.3     68.8     67.9       37     1020     0.00      261     13.1
    01/27/2015 16:00      5.4      182     10.6      175     68.2     68.7     67.8       36     1020     0.00      213     13.1
    01/27/2015 16:15      3.3      198      9.5      185     67.9     68.3     67.5       36     1020     0.00      148     13.2
    01/27/2015 16:30      2.7      207      6.2      176     67.0     68.0     65.9       40     1020     0.00       49     13.2
    01/27/2015 16:45      3.9      198      7.3      191     65.7     66.0     65.4       40     1020     0.00       23     13.2
    01/27/2015 17:00      3.9      191      7.7      205     65.6     65.9     65.3       41     1020     0.00       25     13.3
    01/27/2015 17:15      3.5      219      7.5      250     64.9     65.5     64.4       49     1020     0.00       12     13.3
    01/27/2015 17:30      2.6      265      6.8      255     63.8     64.7     63.2       57     1019     0.00        3     13.3
    01/27/2015 17:45      2.7      276      7.9      260     62.8     63.3     62.3       59     1020     0.00        0     13.3
    01/27/2015 18:00      2.5      281      7.5      248     62.1     62.6     61.6       61     1020     0.00        0     13.3
    01/27/2015 18:15      2.2      280      5.3      277     61.4     61.8     61.1       61     1020     0.00        0     13.4
    01/27/2015 18:30      2.0      273      6.5      252     60.9     61.3     60.6       62     1020     0.00        0     13.4
    01/27/2015 18:45      1.9      278      4.0      288     60.3     60.8     59.9       63     1020     0.00        0     13.4
    01/27/2015 19:00      2.0      261      5.6      252     59.6     60.0     59.2       63     1020     0.00        0     13.4
    01/27/2015 19:15      2.6      248      7.2      249     59.1     59.5     58.5       64     1021     0.00        0     13.4
    01/27/2015 19:30      1.6      245      4.6      256     58.4     59.1     57.7       66     1021     0.00        0     13.4
    01/27/2015 19:45      1.6      250      4.6      261     58.1     58.3     57.6       65     1021     0.00        0     13.4
    01/27/2015 20:00      0.6      249      3.4      258     57.4     57.9     56.9       67     1021     0.00        0     13.4
    01/27/2015 20:15      0.0        0      0.0      282     57.0     57.4     56.6       66     1021     0.00        0     13.4
    01/27/2015 20:30      0.5      263      1.8      353     56.5     57.2     56.1       67     1021     0.00        0     13.4
    01/27/2015 20:45      0.3      334      1.7      340     56.5     56.8     56.1       67     1020     0.00        0     13.4
    01/27/2015 21:00      0.2      212      1.5      194     55.5     56.2     54.9       71     1020     0.00        0     13.5
    01/27/2015 21:15      0.3      242      1.8      260     54.7     55.0     54.4       73     1021     0.00        0     13.5
    01/27/2015 21:30      0.0        0      0.0      160     54.6     55.0     54.3       72     1020     0.00        0     13.5
    01/27/2015 21:45      0.1      236      1.8      188     53.9     54.4     53.6       76     1021     0.00        0     13.5
    01/27/2015 22:00      0.0      290      0.8      287     53.9     54.1     53.7       74     1021     0.00        0     13.5
    01/27/2015 22:15      0.1      316      0.9      301     54.0     54.3     53.7       74     1021     0.00        0     13.5
    01/27/2015 22:30      0.5      314      1.5      316     53.9     54.1     53.6       74     1021     0.00        0     13.5
    01/27/2015 22:45      0.0        0      0.0      284     52.8     53.8     52.4       78     1020     0.00        0     13.5
    01/27/2015 23:00      0.0        0      0.0      295     52.7     53.2     52.3       77     1020     0.00        0     13.5
    01/27/2015 23:15      0.0        0      0.0       58     52.7     52.9     52.4       77     1020     0.00        0     13.5
    01/27/2015 23:30      0.0      343      0.9      346     52.9     53.1     52.5       77     1020     0.00        0     13.5
    01/27/2015 23:45      0.0        0      0.0      272     52.4     52.5     52.1       79     1020     0.00        0     13.5
    01/28/2015 00:00      0.0        0      0.0       32     52.5     52.7     52.3       78     1020     0.00        0     13.5
    01/28/2015 00:15      0.0        0      0.0      125     52.3     52.6     52.0       79     1020     0.00        0     13.5
    01/28/2015 00:30      0.1      349      0.9      345     52.4     52.7     52.0       78     1020     0.00        0     13.5
    01/28/2015 00:45      0.0        0      0.0      314     52.2     52.5     51.9       80     1020     0.00        0     13.5
    01/28/2015 01:00      0.5      141      2.9      140     51.9     52.3     51.6       80     1020     0.00        0     13.5
    01/28/2015 01:15      0.5      169      2.8      164     51.6     51.8     51.3       80     1020     0.00        0     13.5
    01/28/2015 01:30      0.7      293      3.0      259     51.9     52.1     51.6       79     1020     0.00        0     13.5
    01/28/2015 01:45      0.8      281      2.9      257     52.1     52.4     51.8       78     1021     0.00        0     13.5
    01/28/2015 02:00      0.5      318      1.7      282     52.1     52.3     51.8       78     1021     0.00        0     13.5
    01/28/2015 02:15      1.2      345      2.2      342     52.4     52.7     52.1       77     1021     0.00        0     13.5
    01/28/2015 02:30      0.5      352      2.2      352     52.8     53.0     52.4       75     1021     0.00        0     13.5
    01/28/2015 02:45      0.0        0      0.0      339     51.6     52.4     51.1       79     1021     0.00        0     13.5
    01/28/2015 03:00      0.0       59      0.7       59     51.3     51.6     51.1       80     1021     0.00        0     13.5
    01/28/2015 03:15      0.3      346      1.4      346     51.6     51.8     51.3       79     1020     0.00        0     13.6
    01/28/2015 03:30      0.0      354      0.5      354     51.0     51.6     50.2       80     1020     0.00        0     13.5
    01/28/2015 03:45      0.0        0      0.0      232     50.3     50.4     50.0       82     1020     0.00        0     13.5
    01/28/2015 04:00      0.0        0      0.0      233     50.5     50.7     50.2       82     1020     0.00        0     13.5
    01/28/2015 04:15      0.2      280      1.5      252     50.8     51.1     50.5       81     1020     0.00        0     13.5
    01/28/2015 04:30      0.1      326      1.5      307     51.2     51.5     51.0       81     1019     0.00        0     13.5
    01/28/2015 04:45      0.3      254      1.8      274     51.2     51.5     51.0       81     1019     0.00        0     13.5
    01/28/2015 05:00      0.0      268      0.9      258     51.2     51.5     51.0       81     1019     0.00        0     13.5
    01/28/2015 05:15      0.4      209      2.5      200     51.6     51.9     51.3       80     1019     0.00        0     13.5
    01/28/2015 05:30      0.8      176      3.2      190     52.3     52.8     51.6       77     1019     0.00        0     13.5
    01/28/2015 05:45      1.3      150      3.1      169     52.6     52.9     52.4       77     1019     0.00        0     13.5
    01/28/2015 06:00      2.0       13      8.1      344     54.5     56.9     52.7       66     1019     0.00        0     13.5
    01/28/2015 06:15      4.8      347     11.5        9     58.5     59.2     56.9       59     1019     0.00        0     13.5
    01/28/2015 06:30      3.5      346     11.0      327     59.1     59.5     58.8       59     1019     0.00        0     13.5
    01/28/2015 06:45      6.3      345     15.9      355     59.3     59.6     58.9       59     1019     0.00        0     13.5
    01/28/2015 07:00      6.2      345     15.0      338     59.2     59.4     59.0       59     1019     0.00        1     13.5
    01/28/2015 07:15      5.6      343     13.9      312     59.2     59.4     59.0       59     1020     0.00        6     13.4
    01/28/2015 07:30      4.9      344     14.0        0     59.2     59.5     59.0       59     1020     0.00       22     13.4
    01/28/2015 07:45      5.3      344     13.0      348     59.4     59.8     59.1       58     1020     0.00       43     13.4
    01/28/2015 08:00      4.8      341     12.8      352     59.8     60.0     59.5       58     1020     0.00       55     13.4
    01/28/2015 08:15      4.9      337     12.3      320     60.0     60.2     59.7       58     1020     0.00       85     13.4
    01/28/2015 08:30      5.3      339     16.4      317     60.3     60.7     60.0       57     1020     0.00      105     13.4
    01/28/2015 08:45      5.9      342     13.6      354     60.9     61.5     60.5       56     1020     0.00      144     13.4
    01/28/2015 09:00      6.6      348     16.0      352     62.0     62.5     61.3       53     1020     0.00      131     13.4
    01/28/2015 09:15      5.3      345     14.5      353     62.9     63.5     62.3       51     1020     0.00      196     13.4
    01/28/2015 09:30      4.8      344     11.7      334     63.9     64.4     63.3       50     1020     0.00      314     13.3
    01/28/2015 09:45      5.1      342     15.9      336     64.4     64.7     64.0       49     1020     0.00      269     13.3
    01/28/2015 10:00      5.2      337     11.8      340     64.9     65.2     64.5       47     1020     0.00      334     13.3
    01/28/2015 10:15      5.7      340     12.8        0     65.1     65.4     64.9       48     1020     0.00      296     13.3
    01/28/2015 10:30      6.2      338     15.3      344     66.0     66.9     65.3       47     1020     0.00      476     13.3
    01/28/2015 10:45      6.1      336     17.5      335     67.1     67.5     66.7       43     1019     0.00      494     13.3
    01/28/2015 11:00      6.3      339     20.1      322     67.7     68.0     67.3       42     1019     0.00      420     13.2
    01/28/2015 11:15      6.3      341     14.1      320     68.2     68.9     67.7       41     1019     0.00      469     13.2
    01/28/2015 11:30      7.4      338     15.7        5     69.0     69.4     68.6       38     1019     0.00      490     13.2
    01/28/2015 11:45      7.9      336     18.9      325     69.4     69.7     69.0       40     1018     0.00      431     13.2
    01/28/2015 12:00      5.6      341     13.3        2     69.7     70.3     69.0       36     1018     0.00      416     13.2
    01/28/2015 12:15      5.4      338     15.6      325     70.0     70.3     69.7       39     1018     0.00      444     13.2
    01/28/2015 12:30      5.0      333     15.0      351     70.1     70.4     69.8       38     1018     0.00      405     13.2
    01/28/2015 12:45      4.5      323     11.5      337     70.2     70.6     69.8       36     1018     0.00      392     13.2
    01/28/2015 13:00      4.9      328     13.3      330     69.8     70.1     69.4       37     1018     0.00      360     13.2
    01/28/2015 13:15      5.6      327     12.9      325     69.5     69.9     69.0       39     1018     0.00      333     13.2
    01/28/2015 13:30      5.1      326     12.1      346     68.8     69.3     68.5       41     1018     0.00      264     13.2
    01/28/2015 13:45      5.2      334     12.4      329     68.7     69.2     68.4       41     1017     0.00      279     13.2
    01/28/2015 14:00      5.1      333     15.3      339     69.0     69.3     68.7       42     1017     0.00      292     13.2
    01/28/2015 14:15      4.5      334     11.7        9     69.1     69.3     68.8       42     1017     0.00      260     13.2
    01/28/2015 14:30      4.6      331     11.6      335     68.8     69.2     68.3       43     1017     0.00      184     13.2
    01/28/2015 14:45      3.8      332     10.2      342     68.5     68.8     68.2       43     1018     0.00      165     13.2
    01/28/2015 15:00      4.0      325      9.9      341     68.5     68.7     68.1       43     1018     0.00      130     13.3
    01/28/2015 15:15      4.5      335     11.8      348     68.2     68.5     67.9       43     1018     0.00      101     13.3
    01/28/2015 15:30      5.3      333     12.6      337     68.1     68.3     67.8       44     1018     0.00       79     13.3
    01/28/2015 15:45      4.4      337     11.7      324     67.8     68.1     67.5       44     1017     0.00       62     13.3
    01/28/2015 16:00      4.1      341     11.9        1     67.7     67.9     67.4       46     1017     0.00       60     13.3
    01/28/2015 16:15      4.4      343      9.3        3     67.6     67.8     67.4       45     1017     0.00       48     13.3
    01/28/2015 16:30      3.7      344      9.9      325     67.4     67.7     67.2       44     1017     0.00       31     13.3
    01/28/2015 16:45      4.4      348      8.9      346     67.3     67.5     67.1       43     1017     0.00       18     13.3
    01/28/2015 17:00      4.2      349     10.9      343     67.2     67.4     67.0       41     1017     0.00       11     13.3
    01/28/2015 17:15      3.9      347      9.8        9     67.0     67.3     66.8       40     1017     0.00        6     13.3
    01/28/2015 17:30      3.9      348      8.5      351     66.9     67.2     66.6       40     1017     0.00        2     13.3
    01/28/2015 17:45      3.0      344      8.0       -0     66.6     66.9     66.4       40     1017     0.00        0     13.3
    01/28/2015 18:00      4.4      345      9.6       -0     66.4     66.6     66.1       40     1018     0.00        0     13.3
    01/28/2015 18:15      3.3      347      9.8      348     66.3     66.5     66.1       40     1018     0.00        0     13.3
    01/28/2015 18:30      3.6      342      8.6      337     66.2     66.4     66.0       39     1018     0.00        0     13.3
    01/28/2015 18:45      4.2      349     11.2        0     66.3     66.5     66.1       39     1018     0.00        0     13.3
    01/28/2015 19:00      3.7      348      9.5       21     66.1     66.4     65.9       39     1018     0.00        0     13.3
    01/28/2015 19:15      5.3      353     12.4      340     66.1     66.4     65.9       38     1018     0.00        0     13.3
    01/28/2015 19:30      3.4      356      6.7        3     66.1     66.3     65.8       37     1018     0.00        0     13.3
    01/28/2015 19:45      2.7      351      8.3      336     66.0     66.3     65.8       38     1018     0.00        0     13.3
    01/28/2015 20:00      2.7      345      7.8      340     65.8     66.1     65.5       38     1018     0.00        0     13.3
    01/28/2015 20:15      3.9      350      9.1      349     65.8     66.0     65.5       37     1018     0.00        0     13.3
    01/28/2015 20:30      3.1      350      7.1      354     65.6     66.0     65.3       38     1018     0.00        0     13.3
    01/28/2015 20:45      3.2      350      7.1      345     65.5     65.7     65.3       38     1018     0.00        0     13.3
    01/28/2015 21:00      4.0      346      8.9      334     65.6     65.9     65.4       39     1018     0.00        0     13.3
    01/28/2015 21:15      4.2      342     12.6      321     65.6     65.8     65.4       38     1018     0.00        0     13.3
    01/28/2015 21:30      5.7      344     11.6      336     65.7     66.0     65.5       38     1018     0.00        0     13.3
    01/28/2015 21:45      5.2      339     11.2      337     65.6     65.8     65.4       39     1018     0.00        0     13.3
    01/28/2015 22:00      6.1      344     14.3      340     65.6     65.8     65.3       40     1018     0.00        0     13.3
    01/28/2015 22:15      6.2      344     16.5      352     65.4     65.6     65.2       40     1018     0.00        0     13.3
    01/28/2015 22:30      5.1      344     11.3      346     65.2     65.5     64.8       41     1018     0.00        0     13.3
    01/28/2015 22:45      4.3      345      9.9      341     65.0     65.3     64.7       41     1018     0.00        0     13.3
    01/28/2015 23:00      5.7      347     13.6      339     65.1     65.5     64.7       39     1018     0.00        0     13.3
    01/28/2015 23:15      6.1      347     14.9      353     65.5     65.7     65.2       37     1018     0.00        0     13.3
    01/28/2015 23:30      4.0      335     13.5      351     65.6     65.8     65.1       39     1017     0.00        0     13.3
    01/28/2015 23:45      3.8      336      9.5        0     65.1     65.3     64.8       38     1017     0.00        0     13.3
    01/29/2015 00:00      6.0      342     17.7      293     65.5     66.0     64.9       36     1017     0.00        0     13.3
    01/29/2015 00:15      5.7      347     12.7        6     65.7     65.9     65.5       36     1017     0.00        0     13.3
    01/29/2015 00:30      7.2      350     15.4      330     65.8     66.2     65.5       34     1017     0.00        0     13.3
    01/29/2015 00:45      4.9      348     14.6      345     66.0     66.4     65.7       35     1017     0.00        0     13.3
    01/29/2015 01:00      5.2      343     15.6      344     65.5     66.0     65.2       36     1017     0.00        0     13.3
    01/29/2015 01:15      6.1      347     15.1        1     65.4     65.6     65.2       36     1017     0.00        0     13.3
    01/29/2015 01:30      5.8      342     17.8      351     65.3     65.7     65.2       36     1017     0.00        0     13.3
    01/29/2015 01:45      5.8      345     13.6      355     65.2     65.5     64.8       37     1017     0.00        0     13.3
    01/29/2015 02:00      7.3      347     13.7        3     65.2     65.3     65.0       37     1017     0.00        0     13.3
    01/29/2015 02:15      5.8      345     13.6       20     65.1     65.3     64.8       37     1017     0.00        0     13.3
    01/29/2015 02:30      5.4      344     14.4      344     64.9     65.2     64.7       37     1017     0.00        0     13.3
    01/29/2015 02:45      4.7      344     12.6      355     64.9     65.0     64.7       37     1017     0.00        0     13.3
    01/29/2015 03:00      6.3      351     13.2      354     64.9     65.0     64.7       36     1017     0.00        0     13.3
    01/29/2015 03:15      5.2      350     14.6      352     64.8     65.0     64.6       37     1016     0.00        0     13.3
    01/29/2015 03:30      5.9      353     12.6      343     64.6     64.8     64.4       38     1016     0.00        0     13.3
    01/29/2015 03:45      5.3      351     11.5      328     64.4     64.6     64.2       38     1016     0.00        0     13.3
    01/29/2015 04:00      5.3      344     12.1      351     64.5     64.7     64.3       38     1016     0.00        0     13.3
    01/29/2015 04:15      6.3      348     15.6      334     64.4     64.6     64.2       39     1016     0.00        0     13.3
    01/29/2015 04:30      6.4      344     12.6      338     64.3     64.5     64.1       38     1016     0.00        0     13.3
    01/29/2015 04:45      7.0      348     15.6      342     64.5     64.8     64.2       38     1016     0.00        0     13.3
    01/29/2015 05:00      6.8      349     17.8      351     64.6     64.9     64.4       36     1016     0.00        0     13.3
    01/29/2015 05:15      7.9      352     18.0      340     65.0     65.3     64.6       36     1016     0.00        0     13.3
    01/29/2015 05:30      5.0      351     17.8       32     64.7     65.0     64.4       36     1016     0.00        0     13.3
    01/29/2015 05:45      7.1      347     15.8      318     65.0     65.3     64.5       35     1016     0.00        0     13.3
    01/29/2015 06:00      6.1      351     19.0      345     65.2     65.4     65.0       35     1016     0.00        0     13.3
    01/29/2015 06:15      5.4      352     13.5      348     65.3     65.6     65.0       35     1016     0.00        0     13.3
    01/29/2015 06:30      6.6      353     14.8       14     65.5     65.8     65.2       35     1016     0.00        0     13.3
    01/29/2015 06:45      7.4      351     16.6      352     65.5     65.7     65.3       35     1016     0.00        0     13.3
    01/29/2015 07:00      7.0      346     21.6      352     65.5     65.8     65.2       34     1016     0.00        2     13.3
    01/29/2015 07:15      7.0      350     18.3      336     65.5     65.8     65.2       34     1016     0.00        9     13.3
    01/29/2015 07:30      8.5      353     18.1      342     65.8     66.3     65.4       33     1016     0.00       24     13.3
    01/29/2015 07:45      6.4      352     16.1      335     66.2     66.7     65.9       32     1016     0.00       37     13.3
    01/29/2015 08:00      7.4      352     17.4      345     66.6     66.9     66.2       32     1016     0.00       58     13.3
    01/29/2015 08:15      6.6      347     15.7        5     66.5     66.8     66.3       33     1016     0.00       71     13.3
    01/29/2015 08:30      7.9      350     18.5      337     66.5     66.7     66.3       33     1016     0.00       74     13.3
    01/29/2015 08:45      7.9      349     17.4      347     66.7     67.0     66.4       33     1017     0.00       88     13.3
    01/29/2015 09:00      7.9      348     16.1      354     66.8     67.0     66.5       32     1017     0.00      108     13.3
    01/29/2015 09:15      6.9      348     16.5      319     67.0     67.4     66.7       32     1017     0.00      129     13.3
    01/29/2015 09:30      6.8      344     16.7      318     67.3     67.7     66.9       32     1017     0.00      152     13.3
    01/29/2015 09:45      7.2      348     18.1      341     67.6     67.8     67.3       32     1017     0.00      176     13.3
    01/29/2015 10:00      6.5      346     16.8      332     67.9     68.2     67.6       32     1017     0.00      197     13.3
    01/29/2015 10:15      6.0      343     14.0        5     68.3     68.6     68.0       32     1017     0.00      205     13.3
    01/29/2015 10:30      5.7      339     15.3      351     68.5     68.8     68.3       32     1017     0.00      208     13.3
    01/29/2015 10:45      6.7      344     15.1      330     68.8     69.0     68.4       31     1017     0.00      221     13.3
    01/29/2015 11:00      6.5      345     14.3      323     69.0     69.4     68.7       31     1017     0.00      246     13.3
    01/29/2015 11:15      6.9      345     16.2      340     69.3     69.6     69.0       31     1017     0.00      263     13.3
    01/29/2015 11:30      6.0      343     15.3      343     69.6     69.8     69.4       32     1017     0.00      259     13.3
    01/29/2015 11:45      6.0      337     13.5      327     69.9     70.3     69.5       31     1016     0.00      268     13.2
    01/29/2015 12:00      4.7      328     11.3      333     70.3     70.5     70.1       31     1016     0.00      282     13.2
    01/29/2015 12:15      4.4      336     11.8      316     70.7     70.9     70.3       30     1016     0.00      302     13.2
    01/29/2015 12:30      4.6      330     11.1        0     71.0     71.3     70.7       30     1016     0.00      301     13.2
    01/29/2015 12:45      4.3      331     12.3      336     71.3     71.6     71.0       30     1015     0.00      290     13.2
    01/29/2015 13:00      3.6      326     10.7      349     71.8     72.2     71.4       30     1015     0.00      334     13.2
    01/29/2015 13:15      2.7      322     10.4      146     72.5     73.2     72.0       28     1015     0.00      373     13.2
    01/29/2015 13:30      3.4      327      8.6      341     73.2     73.5     72.8       27     1015     0.00      412     13.2
    01/29/2015 13:45      3.0      319      8.9      333     73.4     73.7     72.9       28     1014     0.00      333     13.2
    01/29/2015 14:00      3.1      313     11.1      330     73.3     73.8     72.7       28     1014     0.00      258     13.2
    01/29/2015 14:15      2.7      331      6.0      336     72.8     73.0     72.6       28     1014     0.00      196     13.2
    01/29/2015 14:30      2.0      333      7.1      333     72.7     73.0     72.5       28     1014     0.00      175     13.2
    01/29/2015 14:45      2.3      342      7.9      340     72.4     72.6     72.2       28     1014     0.00      165     13.2
    01/29/2015 15:00      2.3      338      6.7      352     72.3     72.6     72.0       29     1014     0.00      149     13.2
    01/29/2015 15:15      1.4        3      4.5      308     72.3     72.6     72.1       27     1014     0.00      142     13.2
    01/29/2015 15:30      2.5      134      6.3      171     72.2     72.6     71.8       28     1014     0.00      110     13.2
    01/29/2015 15:45      2.8      139      5.6      135     71.7     72.0     71.4       29     1014     0.00       80     13.2
    01/29/2015 16:00      2.6      116      7.0      137     71.4     71.7     71.1       26     1014     0.00       79     13.2
    01/29/2015 16:15      2.4      139      4.9      128     71.2     71.7     70.7       28     1014     0.00       66     13.2
    01/29/2015 16:30      2.5      146      6.4      157     70.3     70.9     69.8       32     1014     0.00       48     13.3
    01/29/2015 16:45      2.1      143      5.2      146     69.6     70.0     69.2       34     1014     0.00       30     13.3
    01/29/2015 17:00      1.0      145      3.7      147     68.8     69.3     68.4       34     1014     0.00       15     13.3
    01/29/2015 17:15      0.2      135      1.6      132     68.3     68.6     68.0       35     1014     0.00        6     13.3
    01/29/2015 17:30      0.3      132      1.4      140     67.6     68.2     67.0       37     1015     0.00        4     13.3
    01/29/2015 17:45      0.0      142      0.8      150     66.5     67.1     65.9       40     1015     0.00        0     13.3
    01/29/2015 18:00      0.0      131      0.7      130     65.8     66.1     65.5       39     1015     0.00        0     13.3
    01/29/2015 18:15      0.2       81      1.6       75     65.9     66.2     65.6       39     1015     0.00        0     13.3
    01/29/2015 18:30      1.3       83      2.5       88     66.2     66.5     65.9       39     1015     0.00        0     13.3
    01/29/2015 18:45      0.9       81      2.6       69     66.1     66.4     65.8       38     1015     0.00        0     13.3
    01/29/2015 19:00      1.7       77      3.7       46     65.9     66.2     65.6       38     1015     0.00        0     13.3
    01/29/2015 19:15      2.1       72      4.3       32     65.7     66.0     65.5       36     1015     0.00        0     13.3
    01/29/2015 19:30      1.9       74      3.7       99     65.4     65.6     65.2       36     1016     0.00        0     13.3
    01/29/2015 19:45      1.5       73      3.3       83     65.1     65.4     64.9       36     1016     0.00        0     13.3
    01/29/2015 20:00      1.6       75      3.9       75     64.9     65.2     64.7       37     1016     0.00        0     13.3
    01/29/2015 20:15      0.3       91      2.2       97     64.5     65.0     64.0       40     1016     0.00        0     13.3
    01/29/2015 20:30      0.9       63      3.5       70     64.2     64.5     64.0       39     1016     0.00        0     13.3
    01/29/2015 20:45      1.1       83      3.6       99     64.0     64.4     63.6       41     1016     0.00        0     13.3
    01/29/2015 21:00      1.2       86      3.9       52     63.6     63.8     63.5       41     1016     0.00        0     13.3
    01/29/2015 21:15      0.1       90      1.6       90     63.2     63.7     62.8       43     1016     0.00        0     13.4
    01/29/2015 21:30      0.1      100      1.1       90     62.6     63.1     61.9       45     1016     0.00        0     13.3
    01/29/2015 21:45      0.7       10      2.2        1     62.4     63.0     61.8       46     1016     0.00        0     13.3
    01/29/2015 22:00      0.6       25      2.4       23     62.6     63.0     61.9       51     1016     0.00        0     13.4
    01/29/2015 22:15      1.4       26      4.9       52     61.9     62.6     61.3       49     1016     0.00        0     13.4
    01/29/2015 22:30      0.3      290      1.8      298     61.6     62.6     61.1       53     1016     0.00        0     13.4
    01/29/2015 22:45      0.1      337      1.0      350     61.3     61.6     61.0       52     1016     0.00        0     13.4
    01/29/2015 23:00      0.5        1      2.2       19     61.7     62.1     61.3       50     1016     0.00        0     13.4
    01/29/2015 23:15      0.5       32      2.3       71     62.1     62.4     61.7       53     1016     0.00        0     13.4
    01/29/2015 23:30      1.5      351      4.1      355     61.6     61.9     61.4       52     1016     0.00        0     13.4
    01/29/2015 23:45      1.3      338      3.9      336     61.6     61.9     61.4       52     1016     0.00        0     13.4
    01/30/2015 00:00      0.8      324      3.9      316     61.9     62.4     61.5       52     1015     0.00        0     13.4
    01/30/2015 00:15      0.4      307      2.1      303     61.6     62.0     61.3       50     1015     0.00        0     13.4
    01/30/2015 00:30      0.0      320      0.9      350     61.5     61.9     61.0       53     1015     0.00        0     13.4
    01/30/2015 00:45      0.0      235      0.8      240     61.0     61.2     60.6       52     1015     0.00        0     13.4
    01/30/2015 01:00      0.4      152      1.7      130     60.8     61.3     60.5       54     1015     0.00        0     13.4
    01/30/2015 01:15      0.8      153      3.8      142     60.6     61.2     60.0       57     1015     0.00        0     13.4
    01/30/2015 01:30      0.7      291      3.8      292     59.9     60.3     59.5       60     1015     0.00        0     13.4
    01/30/2015 01:45      1.3      281      3.5      297     60.2     61.1     59.5       51     1015     0.00        0     13.4
    01/30/2015 02:00      0.3      323      3.0      337     61.1     61.3     60.8       50     1014     0.00        0     13.4
    01/30/2015 02:15      0.9      336      5.2      352     61.2     61.6     61.0       49     1014     0.00        0     13.4
    01/30/2015 02:30      1.8      334      5.2      340     61.7     62.0     61.4       48     1014     0.00        0     13.4
    01/30/2015 02:45      1.9      323      7.8       -0     61.7     62.0     61.4       49     1014     0.00        0     13.4
    01/30/2015 03:00      2.4      352      7.8      309     61.6     61.9     61.3       50     1014     0.00        0     13.4
    01/30/2015 03:15      1.8      321      4.8      350     61.1     61.5     60.7       53     1014     0.00        0     13.4
    01/30/2015 03:30      2.1      309      6.7      337     60.6     60.9     60.2       55     1014     0.00        0     13.4
    01/30/2015 03:45      3.9      336     11.4       59     60.6     61.0     60.3       54     1013     0.00        0     13.4
    01/30/2015 04:00      6.1      352     14.5        2     60.8     61.0     60.6       55     1013     0.00        0     13.4
    01/30/2015 04:15      7.6      355     15.0       12     60.5     60.9     60.2       57     1013     0.00        0     13.4
    01/30/2015 04:30      8.2      357     15.2       17     60.1     60.4     59.9       58     1013     0.00        0     13.4
    01/30/2015 04:45      7.4        5     15.6      342     60.1     60.2     59.9       57     1013     0.00        0     13.4
    01/30/2015 05:00      6.4        8     14.5      251     60.1     60.3     59.9       57     1013     0.00        0     13.4
    01/30/2015 05:15      6.3        4     13.8       12     60.0     60.3     59.9       57     1013     0.00        0     13.4
    01/30/2015 05:30      5.5      355     11.8      352     60.2     60.5     60.0       55     1013     0.00        0     13.4
    01/30/2015 05:45      6.5      357     15.4      353     60.6     60.8     60.3       53     1012     0.00        0     13.4
    01/30/2015 06:00      6.6        1     14.7      341     60.9     61.2     60.6       53     1013     0.00        0     13.4